Terminal Aerodrome Forecast
Issued by NWS Rapid City, SD

Home | Current Version | Previous Version | Text Only | Print | Product List | Glossary Off
Versions: 1 2 3 4 5 6 7 8 9 10 11 12 13 14 15 16 17 18

000
FTUS43 KUNR 181100
TAFRAP
TAF
KRAP 181120Z 1812/1912 13005KT P6SM FEW120
      TEMPO 1812/1815 1SM BR VV001
     FM181600 16014KT P6SM SCT120=

USA.gov is the U.S. government's official web portal to all federal, state and local government web resources and services.